PWSweather.com
Personal Weather Stations
Station Observations
IMAZOWIE6
WarszawaPL

WarszawaPL

Lat: 52.27957, Lon: 21.05489

Elevation: 100

Station Type: WS1080

http://stacjapogody.waw.pl/

Latest ConditionsUpdated 5:01:13 AM GMT+01:01 Wednesday, Aug 21, 2019
Currently Today's Max Today's Min Today's Average
Temperature 62.2°F16.8°C 64.9°F18.3°C 61.7°F16.5°C 62.7°F17.1°C
Dew Point 31.1°F-0.5°C 31.1°F-0.5°C -166.6°F-110.3°C -102.9°F-74.9°C
Winds Calm Calm Calm -Calm - - Calm Calm
Wind Gusts -- 0.6 mph1.0 kmh - -
Humidity 31% 31% 14% 24%
Pressure 30.34 in1027.4 mb 30.34 in1027.4 mb 30.07 in1018.3 mb -
Hour Temp Dew Point Humidity Winds Wind Gusts Pressure Precip Precip Rate Daily Precip Total
05:01 AM 62.2°F16.8°C 31.1°F-0.5°C 31% Calm Calm -- 30.34 in1027.4 mb 0.06 in1.5 mm 0.00 in0.0 mm 0.45 in11.4 mm
04:46 AM 62.2°F16.8°C 29.4°F-1.4°C 29% Calm Calm -- 30.33 in1027.1 mb 0.06 in1.5 mm 0.00 in0.0 mm 0.45 in11.4 mm
04:31 AM 62.2°F16.8°C 27.7°F-2.4°C 27% Calm Calm -- 30.32 in1026.8 mb 0.06 in1.5 mm 0.20 in5.1 mm 0.45 in11.4 mm
04:16 AM 62.2°F16.8°C 26.8°F-2.9°C 26% Calm Calm -- 30.32 in1026.8 mb 0.01 in0.3 mm 0.00 in0.0 mm 0.41 in10.4 mm
04:01 AM 62.2°F16.8°C 22.8°F-5.1°C 22% Calm Calm -- 30.28 in1025.4 mb 0.23 in5.8 mm 0.10 in2.5 mm 0.41 in10.4 mm
03:46 AM 62.4°F16.9°C 19.5°F-6.9°C 19% Calm Calm 0.6 mph1.0 kmh 30.29 in1025.7 mb 0.16 in4.1 mm 0.15 in3.8 mm 0.33 in8.4 mm
03:31 AM 62.1°F16.7°C 12.2°F-11.0°C 14% Calm Calm 0.6 mph1.0 kmh 30.26 in1024.7 mb 0.12 in3.0 mm 0.20 in5.1 mm 0.30 in7.6 mm
03:16 AM 61.9°F16.6°C -166.6°F-110.3°C - Calm Calm -- 30.26 in1024.7 mb 0.07 in1.8 mm 0.00 in0.0 mm 0.25 in6.4 mm
03:01 AM 61.7°F16.5°C -166.6°F-110.3°C - Calm Calm -- 30.24 in1024.0 mb 0.20 in5.1 mm 0.05 in1.3 mm 0.25 in6.4 mm
02:46 AM 61.9°F16.6°C -166.6°F-110.3°C - Calm Calm -- 30.23 in1023.7 mb 0.16 in4.1 mm 0.20 in5.1 mm 0.21 in5.3 mm
02:31 AM 62.1°F16.7°C -166.6°F-110.3°C - Calm Calm -- 30.24 in1024.0 mb 0.11 in2.8 mm 0.20 in5.1 mm 0.16 in4.1 mm
02:16 AM 61.9°F16.6°C -166.6°F-110.3°C - Calm Calm -- 30.20 in1022.7 mb 0.06 in1.5 mm 0.00 in0.0 mm 0.11 in2.8 mm
02:01 AM 62.1°F16.7°C -166.6°F-110.3°C - Calm Calm -- 30.20 in1022.7 mb 0.09 in2.3 mm 0.05 in1.3 mm 0.11 in2.8 mm
01:46 AM 62.4°F16.9°C -166.6°F-110.3°C - Calm Calm 0.6 mph1.0 kmh 30.19 in1022.4 mb 0.05 in1.3 mm 0.15 in3.8 mm 0.07 in1.8 mm
01:31 AM 62.6°F17.0°C -166.5°F-110.3°C - Calm Calm -- 30.17 in1021.7 mb 0.01 in0.3 mm 0.00 in0.0 mm 0.04 in1.0 mm
01:16 AM 62.8°F17.1°C -166.5°F-110.3°C - Calm Calm -- 30.16 in1021.3 mb 0.01 in0.3 mm 0.00 in0.0 mm 0.04 in1.0 mm
01:01 AM 63.1°F17.3°C -166.5°F-110.3°C - Calm Calm -- 30.15 in1021.0 mb 0.01 in0.3 mm 0.00 in0.0 mm 0.04 in1.0 mm
12:46 AM 64.0°F17.8°C -166.4°F-110.2°C - Calm Calm -- 30.14 in1020.7 mb 0.01 in0.3 mm 0.05 in1.3 mm 0.04 in1.0 mm
12:31 AM 64.8°F18.2°C -166.3°F-110.2°C - Calm Calm -- 30.12 in1020.0 mb 0.00 in0.0 mm 0.00 in0.0 mm 0.02 in0.5 mm
12:16 AM 64.9°F18.3°C -166.3°F-110.2°C - Calm Calm -- 30.10 in1019.3 mb 0.00 in0.0 mm 0.00 in0.0 mm 0.02 in0.5 mm
12:01 AM 64.6°F18.1°C -166.3°F-110.2°C - Calm Calm -- 30.07 in1018.3 mb 0.02 in0.5 mm 1.48 in37.6 mm 0.02 in0.5 mm